Terminal Aerodrome Forecast
Issued by NWS

Home | Current Version | Previous Version | Text Only | Print | Product List | Glossary On
Versions: 1 2 3 4 5 6 7 8 9 10 11 12 13 14 15 16
000
FTUS43 KBIS 302100 AAA
TAFMOT
TAF AMD
KMOT 302131Z 3022/3118 29014G22KT 6SM BR OVC010
     FM310300 32012KT P6SM OVC015
     FM311300 03011KT 2SM -SN BR OVC010=

USA.gov is the U.S. government's official web portal to all federal, state and local government web resources and services.